OBBI

Bahrain International

Airport
ICAO code
OBBI
Summary
ICAO Region
MID
ICAO Territory
Location

Al Muharraq,

Coordinates
26° 16' 15" N , 50° 38' 1" E
KCC
Metar
Observation
OBBI 301030Z 34009KT CAVOK 33/21 Q1007 NOSIG
Station
Bahrain International Airport
Date/Time
2022-09-30 10:30:00
Wind direction
340°
Wind speed
09 kts
Lowest cloud amount
clouds and visibility OK
Temperature
33°C
Dew point
21°C
Humidity
49%
QNH
1007 hPa
Weather condition
n/a

Description

International airport serving the Gulf state of Bahrain.

Climatology

Hot Desert Climate (Köppen climate classification BWh) - Hot desert climates are typically found in the subtropics where there is unbroken sunshine for the whole year due to the stable descending air and high pressure, little or no precipitation. Maximum temperatures of 40°C to 45°C are not uncommon, particularly during the warmer months of the year. During colder periods of the year, night-time temperatures can drop to freezing or below due to the exceptional radiation loss under the clear skies. However, very rarely do temperatures drop far below freezing.

Runways

Designator Length Width Surface Rops
12R/30L 2530 45 ASP Yes/Yes
12L/30R 3956 60 ASP Yes/Yes

Airport map

Aerial View

SKYbrary Partners:

Safety knowledge contributed by: